createdAt,value
2023-05-10T00:01:59.513Z,4.47
2023-05-10T00:05:02.823Z,4.33
2023-05-10T00:08:05.790Z,4.00
2023-05-10T00:11:08.518Z,4.22
2023-05-10T00:14:12.685Z,4.00
2023-05-10T00:17:15.724Z,4.65
2023-05-10T00:20:18.834Z,4.63
2023-05-10T00:23:21.870Z,4.50
2023-05-10T00:26:24.625Z,4.32
2023-05-10T00:29:30.507Z,4.78
2023-05-10T00:32:33.363Z,4.18
2023-05-10T00:35:36.211Z,4.53
2023-05-10T00:38:39.192Z,5.70
2023-05-10T00:41:41.930Z,5.20
2023-05-10T00:44:44.785Z,5.63
2023-05-10T00:47:47.805Z,5.25
2023-05-10T00:50:50.806Z,5.27
2023-05-10T00:53:55.072Z,5.18
2023-05-10T00:56:58.485Z,6.20
2023-05-10T01:00:02.516Z,6.18
2023-05-10T01:03:06.632Z,5.95
2023-05-10T01:06:11.046Z,5.53
2023-05-10T01:09:13.860Z,5.78
2023-05-10T01:12:16.688Z,6.25
2023-05-10T01:15:21.378Z,5.75
2023-05-10T01:18:25.804Z,5.85
2023-05-10T01:21:50.971Z,5.80
2023-05-10T01:25:09.161Z,5.35
2023-05-10T01:28:28.288Z,5.30
2023-05-10T01:32:15.918Z,5.43
2023-05-10T01:35:41.256Z,5.93
2023-05-10T01:38:51.578Z,5.80
2023-05-10T01:42:04.606Z,6.32
2023-05-10T01:45:13.141Z,6.55
2023-05-10T01:48:16.347Z,5.70
2023-05-10T01:51:25.005Z,5.93
2023-05-10T01:54:30.021Z,6.20
2023-05-10T01:57:36.186Z,6.32
2023-05-10T02:00:44.087Z,5.88
2023-05-10T02:03:48.888Z,6.55
2023-05-10T02:06:54.073Z,6.75
2023-05-10T02:09:56.863Z,6.47
2023-05-10T02:13:01.745Z,6.40
2023-05-10T02:16:06.597Z,6.50
2023-05-10T02:19:11.564Z,6.97
2023-05-10T02:22:16.512Z,6.43
2023-05-10T02:25:22.063Z,6.83
2023-05-10T02:28:27.246Z,6.50
2023-05-10T02:31:33.262Z,5.95
2023-05-10T02:34:36.496Z,6.97
2023-05-10T02:37:40.945Z,5.47
2023-05-10T02:40:45.666Z,5.83
2023-05-10T02:43:50.774Z,7.03
2023-05-10T02:46:53.982Z,6.65
2023-05-10T02:49:58.419Z,7.63
2023-05-10T02:53:05.593Z,6.88
2023-05-10T02:56:18.448Z,6.93
2023-05-10T02:59:21.468Z,7.10
2023-05-10T03:02:24.326Z,7.85
2023-05-10T03:05:27.084Z,8.50
2023-05-10T03:08:30.582Z,8.13
2023-05-10T03:12:03.959Z,8.80
2023-05-10T03:15:15.548Z,9.43
2023-05-10T03:18:24.463Z,9.52
2023-05-10T03:21:31.093Z,9.88
2023-05-10T03:24:36.469Z,9.73
2023-05-10T03:27:43.970Z,9.83
2023-05-10T03:30:47.389Z,10.55
2023-05-10T03:33:51.397Z,10.13
2023-05-10T03:36:59.870Z,9.30
2023-05-10T03:40:07.603Z,9.80
2023-05-10T03:43:12.665Z,10.13
2023-05-10T03:46:15.485Z,9.82
2023-05-10T03:49:18.663Z,10.40
2023-05-10T03:52:21.846Z,9.77
2023-05-10T03:55:24.996Z,9.93
2023-05-10T03:58:27.912Z,9.17
2023-05-10T04:01:30.727Z,9.43
2023-05-10T04:04:33.666Z,8.73
2023-05-10T04:07:36.370Z,8.57
2023-05-10T04:10:39.131Z,9.07
2023-05-10T04:13:41.937Z,8.23
2023-05-10T04:16:44.690Z,7.80
2023-05-10T04:19:47.440Z,8.65
2023-05-10T04:22:50.182Z,6.88
2023-05-10T04:25:53.009Z,7.70
2023-05-10T04:28:55.789Z,7.90
2023-05-10T04:31:58.904Z,7.60
2023-05-10T04:35:04.067Z,7.63
2023-05-10T04:38:06.788Z,8.30
2023-05-10T04:41:11.175Z,7.00
2023-05-10T04:44:13.933Z,6.93
2023-05-10T04:47:17.461Z,7.43
2023-05-10T04:50:20.723Z,7.20
2023-05-10T04:53:24.035Z,7.05
2023-05-10T04:56:26.779Z,6.68
2023-05-10T04:59:29.571Z,6.77
2023-05-10T05:02:32.431Z,7.05
2023-05-10T05:05:35.829Z,7.45
2023-05-10T05:08:38.628Z,7.40
2023-05-10T05:11:41.533Z,6.85
2023-05-10T05:14:47.070Z,6.80
2023-05-10T05:17:49.871Z,7.50
2023-05-10T05:20:52.737Z,6.13
2023-05-10T05:23:55.715Z,6.45
2023-05-10T05:26:58.404Z,6.18
2023-05-10T05:33:04.144Z,6.70
2023-05-10T05:36:07.423Z,6.00
2023-05-10T05:39:10.322Z,6.00
2023-05-10T05:42:14.392Z,6.60
2023-05-10T05:45:17.578Z,5.57
2023-05-10T05:48:21.261Z,6.18
2023-05-10T05:51:24.287Z,5.82
2023-05-10T05:54:28.348Z,5.13
2023-05-10T05:57:31.355Z,5.68
2023-05-10T06:00:34.195Z,5.90
2023-05-10T06:03:37.238Z,5.45
2023-05-10T06:06:40.267Z,5.07
2023-05-10T06:09:43.227Z,5.82
2023-05-10T06:12:46.243Z,6.70
2023-05-10T06:15:49.255Z,6.03
2023-05-10T06:18:52.268Z,6.03
2023-05-10T06:21:55.030Z,5.55
2023-05-10T06:24:57.914Z,6.00
2023-05-10T06:28:01.106Z,5.82
2023-05-10T06:31:06.124Z,5.87
2023-05-10T06:34:09.335Z,6.30
2023-05-10T06:37:13.578Z,6.20
2023-05-10T06:40:19.702Z,5.95
2023-05-10T06:43:23.840Z,5.60
2023-05-10T06:46:27.034Z,5.53
2023-05-10T06:49:29.872Z,6.28
2023-05-10T06:52:32.867Z,5.53
2023-05-10T06:55:55.739Z,6.20
2023-05-10T06:58:59.148Z,6.45
2023-05-10T07:02:02.088Z,6.73
2023-05-10T07:05:05.682Z,5.85
2023-05-10T07:08:09.522Z,7.13
2023-05-10T07:11:12.681Z,6.22
2023-05-10T07:14:15.608Z,7.40
2023-05-10T07:17:18.575Z,6.73
2023-05-10T07:20:22.731Z,5.93
2023-05-10T07:23:25.872Z,5.88
2023-05-10T07:26:29.572Z,5.78
2023-05-10T07:29:32.576Z,5.78
2023-05-10T07:32:35.608Z,5.80
2023-05-10T07:35:39.013Z,6.35
2023-05-10T07:38:42.359Z,5.88
2023-05-10T07:41:45.251Z,5.65
2023-05-10T07:44:48.333Z,5.60
2023-05-10T07:47:52.683Z,5.60
2023-05-10T07:50:55.645Z,5.50
2023-05-10T07:53:59.141Z,6.15
2023-05-10T07:57:02.721Z,6.72
2023-05-10T08:00:06.659Z,6.63
2023-05-10T08:03:16.298Z,5.80
2023-05-10T08:06:20.800Z,6.20
2023-05-10T08:09:25.363Z,5.75
2023-05-10T08:12:28.414Z,5.95
2023-05-10T08:15:31.246Z,6.70
2023-05-10T08:18:35.003Z,5.13
2023-05-10T08:21:39.584Z,5.70
2023-05-10T08:24:43.119Z,5.95
2023-05-10T08:27:45.987Z,5.72
2023-05-10T08:30:51.319Z,5.68
2023-05-10T08:33:54.435Z,5.40
2023-05-10T08:36:57.241Z,5.85
2023-05-10T08:40:00.119Z,5.90
2023-05-10T08:43:08.388Z,5.68
2023-05-10T08:46:11.888Z,5.75
2023-05-10T08:49:21.261Z,5.97
2023-05-10T08:52:27.238Z,6.03
2023-05-10T08:55:30.008Z,5.35
2023-05-10T08:58:33.239Z,5.50
2023-05-10T09:01:37.907Z,5.00
2023-05-10T09:04:40.877Z,5.33
2023-05-10T09:07:43.640Z,4.97
2023-05-10T09:10:50.439Z,4.38
2023-05-10T09:13:53.745Z,5.15
2023-05-10T09:16:57.464Z,5.40
2023-05-10T09:20:09.184Z,5.10
2023-05-10T09:23:12.072Z,5.25
2023-05-10T09:26:14.907Z,4.38
2023-05-10T09:29:18.209Z,5.50
2023-05-10T09:32:21.211Z,4.85
2023-05-10T09:35:29.632Z,5.30
2023-05-10T09:38:46.427Z,5.00
2023-05-10T09:41:49.494Z,4.75
2023-05-10T09:44:52.191Z,4.95
2023-05-10T09:47:55.389Z,4.50
2023-05-10T09:50:59.405Z,5.47
2023-05-10T09:54:15.948Z,4.68
2023-05-10T09:57:23.198Z,4.50
2023-05-10T10:00:28.445Z,4.35
2023-05-10T10:03:31.399Z,5.05
2023-05-10T10:06:41.068Z,6.47
2023-05-10T10:09:43.857Z,4.28
2023-05-10T10:12:46.660Z,4.18
2023-05-10T10:15:52.361Z,4.00
2023-05-10T10:18:55.528Z,3.72
2023-05-10T10:21:58.363Z,3.80
2023-05-10T10:25:01.654Z,3.40
2023-05-10T10:28:33.567Z,3.60
2023-05-10T10:32:11.302Z,3.90
2023-05-10T10:35:17.190Z,4.03
2023-05-10T10:38:20.184Z,3.70
2023-05-10T10:41:37.230Z,3.90
2023-05-10T10:44:40.372Z,3.88
2023-05-10T10:47:44.673Z,4.03
2023-05-10T10:50:47.871Z,3.50
2023-05-10T10:53:50.688Z,3.87
2023-05-10T10:57:13.480Z,3.53
2023-05-10T11:00:28.510Z,3.92
2023-05-10T11:03:31.330Z,3.08
2023-05-10T11:06:35.950Z,3.50
2023-05-10T11:09:41.720Z,4.00
2023-05-10T11:12:55.265Z,4.10
2023-05-10T11:15:59.942Z,4.00
2023-05-10T11:19:04.067Z,3.65
2023-05-10T11:22:06.900Z,3.92
2023-05-10T11:25:10.024Z,3.80
2023-05-10T11:28:13.807Z,3.67
2023-05-10T11:31:18.213Z,3.58
2023-05-10T11:34:28.433Z,3.20
2023-05-10T11:37:35.311Z,3.65
2023-05-10T11:40:39.236Z,3.37
2023-05-10T11:43:43.048Z,3.47
2023-05-10T11:46:46.098Z,3.10
2023-05-10T11:49:49.571Z,3.40
2023-05-10T11:52:56.500Z,3.38
2023-05-10T11:56:09.588Z,2.90
2023-05-10T11:59:15.906Z,3.20
2023-05-10T12:02:18.768Z,3.03
2023-05-10T12:05:21.963Z,3.50
2023-05-10T12:08:26.743Z,3.40
2023-05-10T12:11:30.976Z,3.93
2023-05-10T12:14:36.229Z,3.30
2023-05-10T12:17:41.949Z,3.35
2023-05-10T12:20:46.193Z,3.13
2023-05-10T12:23:53.673Z,3.75
2023-05-10T12:26:56.687Z,3.40
2023-05-10T12:30:00.990Z,3.75
2023-05-10T12:33:16.277Z,3.60
2023-05-10T12:36:25.158Z,3.00
2023-05-10T12:39:38.251Z,3.55
2023-05-10T12:42:41.665Z,3.47
2023-05-10T12:45:49.067Z,3.13
2023-05-10T12:49:07.636Z,2.88
2023-05-10T12:52:11.658Z,2.80
2023-05-10T12:55:14.603Z,3.05
2023-05-10T12:58:31.465Z,2.70
2023-05-10T13:01:38.227Z,3.10
2023-05-10T13:04:41.178Z,3.05
2023-05-10T13:07:45.008Z,2.88
2023-05-10T13:10:47.784Z,2.40
2023-05-10T13:13:50.621Z,2.60
2023-05-10T13:16:54.473Z,2.58
2023-05-10T13:19:58.045Z,2.70
2023-05-10T13:23:01.520Z,2.20
2023-05-10T13:26:04.530Z,2.50
2023-05-10T13:29:07.721Z,2.53
2023-05-10T13:32:10.456Z,2.42
2023-05-10T13:35:13.254Z,2.65
2023-05-10T13:38:15.959Z,2.40
2023-05-10T13:41:18.803Z,3.00
2023-05-10T13:44:21.740Z,2.50
2023-05-10T13:47:24.456Z,2.85
2023-05-10T13:50:28.073Z,2.50
2023-05-10T13:53:31.043Z,2.63
2023-05-10T13:56:35.744Z,3.30
2023-05-10T13:59:38.580Z,2.40
2023-05-10T14:02:41.950Z,2.38
2023-05-10T14:05:46.166Z,2.30
2023-05-10T14:08:48.978Z,2.35
2023-05-10T14:11:52.232Z,3.35
2023-05-10T14:14:54.915Z,2.37
2023-05-10T14:17:57.682Z,2.00
2023-05-10T14:21:00.648Z,2.05
2023-05-10T14:24:03.440Z,1.98
2023-05-10T14:27:07.152Z,2.30
2023-05-10T14:30:10.404Z,2.23
2023-05-10T14:33:13.589Z,2.22
2023-05-10T14:36:17.323Z,2.05
2023-05-10T14:39:20.518Z,2.70
2023-05-10T14:42:23.203Z,2.15
2023-05-10T14:45:25.915Z,2.97
2023-05-10T14:48:28.657Z,2.30
2023-05-10T14:51:31.385Z,2.05
2023-05-10T14:54:37.221Z,2.63
2023-05-10T14:57:40.149Z,1.95
2023-05-10T15:00:43.098Z,2.30
2023-05-10T15:03:46.352Z,1.92
2023-05-10T15:06:49.460Z,2.10
2023-05-10T15:09:52.976Z,2.05
2023-05-10T15:12:55.738Z,2.20
2023-05-10T15:15:58.514Z,1.73
2023-05-10T15:19:01.396Z,1.95
2023-05-10T15:22:06.105Z,2.50
2023-05-10T15:25:09.259Z,2.10
2023-05-10T15:28:11.960Z,2.13
2023-05-10T15:31:14.784Z,2.13
2023-05-10T15:34:18.979Z,2.00
2023-05-10T15:37:22.424Z,2.30
2023-05-10T15:40:25.124Z,2.45
2023-05-10T15:43:28.108Z,2.10
2023-05-10T15:46:31.643Z,2.20
2023-05-10T15:49:34.905Z,2.30
2023-05-10T15:52:37.732Z,2.05
2023-05-10T15:55:40.626Z,2.50
2023-05-10T15:58:44.174Z,2.47
2023-05-10T16:01:47.037Z,2.17
2023-05-10T16:04:49.739Z,1.88
2023-05-10T16:07:52.538Z,2.25
2023-05-10T16:10:55.246Z,2.95
2023-05-10T16:13:58.006Z,2.35
2023-05-10T16:17:00.867Z,2.20
2023-05-10T16:20:03.908Z,2.22
2023-05-10T16:23:07.806Z,2.50
2023-05-10T16:26:10.621Z,2.10
2023-05-10T16:29:13.384Z,2.15
2023-05-10T16:32:16.091Z,2.30
2023-05-10T16:35:18.945Z,2.10
2023-05-10T16:38:22.238Z,2.20
2023-05-10T16:41:24.982Z,2.00
2023-05-10T16:44:27.782Z,1.90
2023-05-10T16:47:30.508Z,2.20
2023-05-10T16:50:33.331Z,2.03
2023-05-10T16:53:36.493Z,2.20
2023-05-10T16:56:39.192Z,1.98
2023-05-10T16:59:41.971Z,2.20
2023-05-10T17:02:44.772Z,1.67
2023-05-10T17:05:47.618Z,1.83
2023-05-10T17:08:50.409Z,2.20
2023-05-10T17:11:53.134Z,2.08
2023-05-10T17:14:55.921Z,1.83
2023-05-10T17:17:58.767Z,1.57
2023-05-10T17:21:01.538Z,1.60
2023-05-10T17:24:04.337Z,1.70
2023-05-10T17:27:07.218Z,1.73
2023-05-10T17:30:10.345Z,1.70
2023-05-10T17:33:13.065Z,2.13
2023-05-10T17:36:15.790Z,1.85
2023-05-10T17:39:18.566Z,1.67
2023-05-10T17:42:21.414Z,1.73
2023-05-10T17:45:24.100Z,1.50
2023-05-10T17:48:26.847Z,1.33
2023-05-10T17:51:29.668Z,1.48
2023-05-10T17:54:32.412Z,1.38
2023-05-10T17:57:38.134Z,1.25
2023-05-10T18:00:41.009Z,1.98
2023-05-10T18:03:43.694Z,1.67
2023-05-10T18:06:46.360Z,1.40
2023-05-10T18:09:49.018Z,1.70
2023-05-10T18:12:52.493Z,1.40
2023-05-10T18:15:55.218Z,1.48
2023-05-10T18:18:58.250Z,1.90
2023-05-10T18:22:01.046Z,1.23
2023-05-10T18:25:04.695Z,1.23
2023-05-10T18:28:08.443Z,1.25
2023-05-10T18:31:11.266Z,1.60
2023-05-10T18:34:14.002Z,1.40
2023-05-10T18:37:17.098Z,1.63
2023-05-10T18:40:20.012Z,1.40
2023-05-10T18:43:22.760Z,1.40
2023-05-10T18:46:25.626Z,1.52
2023-05-10T18:49:29.492Z,1.60
2023-05-10T18:52:32.653Z,1.73
2023-05-10T18:55:35.384Z,1.33
2023-05-10T18:58:38.590Z,1.48
2023-05-10T19:01:41.916Z,1.58
2023-05-10T19:04:44.860Z,1.60
2023-05-10T19:07:47.893Z,1.70
2023-05-10T19:10:50.950Z,1.50
2023-05-10T19:13:53.614Z,1.45
2023-05-10T19:16:56.446Z,1.50
2023-05-10T19:20:00.136Z,1.70
2023-05-10T19:26:12.480Z,1.95
2023-05-10T19:29:15.308Z,1.67
2023-05-10T19:32:18.261Z,1.60
2023-05-10T19:35:21.394Z,1.47
2023-05-10T19:38:25.533Z,1.63
2023-05-10T19:41:28.742Z,1.67
2023-05-10T19:44:31.806Z,1.65
2023-05-10T19:47:36.388Z,1.40
2023-05-10T19:50:39.204Z,1.73
2023-05-10T19:53:44.875Z,1.70
2023-05-10T19:56:48.031Z,1.88
2023-05-10T19:59:50.782Z,1.38
2023-05-10T20:02:54.169Z,1.70
2023-05-10T20:05:57.476Z,1.20
2023-05-10T20:09:00.502Z,2.40
2023-05-10T20:12:03.420Z,1.75
2023-05-10T20:15:07.911Z,2.00
2023-05-10T20:18:11.067Z,2.10
2023-05-10T20:21:13.795Z,2.03
2023-05-10T20:24:16.512Z,1.95
2023-05-10T20:27:21.176Z,1.70
2023-05-10T20:30:24.170Z,1.70
2023-05-10T20:33:26.912Z,1.90
2023-05-10T20:36:30.286Z,2.47
2023-05-10T20:39:33.144Z,2.45
2023-05-10T20:42:36.233Z,2.70
2023-05-10T20:45:38.992Z,2.22
2023-05-10T20:48:41.732Z,2.35
2023-05-10T20:51:44.475Z,2.50
2023-05-10T20:54:47.145Z,2.30
2023-05-10T20:57:49.843Z,2.20
2023-05-10T21:00:52.558Z,2.30
2023-05-10T21:03:55.206Z,2.10
2023-05-10T21:06:58.029Z,2.00
2023-05-10T21:10:00.853Z,3.00
2023-05-10T21:13:03.628Z,2.03
2023-05-10T21:16:06.577Z,2.25
2023-05-10T21:19:09.380Z,2.30
2023-05-10T21:22:12.104Z,1.80
2023-05-10T21:25:14.790Z,2.20
2023-05-10T21:28:17.473Z,2.33
2023-05-10T21:31:20.370Z,1.80
2023-05-10T21:34:23.098Z,2.20
2023-05-10T21:37:25.833Z,1.90
2023-05-10T21:40:29.157Z,2.53
2023-05-10T21:43:31.869Z,2.15
2023-05-10T21:46:34.594Z,2.53
2023-05-10T21:49:37.310Z,2.60
2023-05-10T21:52:40.158Z,2.33
2023-05-10T21:55:42.821Z,2.67
2023-05-10T21:58:45.822Z,2.40
2023-05-10T22:01:48.697Z,2.45
2023-05-10T22:04:51.613Z,2.35
2023-05-10T22:07:54.286Z,2.40
2023-05-10T22:10:56.945Z,2.60
2023-05-10T22:13:59.721Z,2.40
2023-05-10T22:17:02.479Z,2.55
2023-05-10T22:20:07.448Z,2.17
2023-05-10T22:23:10.171Z,2.57
2023-05-10T22:26:12.989Z,2.33
2023-05-10T22:29:15.760Z,2.20
2023-05-10T22:32:18.625Z,3.13
2023-05-10T22:35:22.151Z,2.50
2023-05-10T22:38:24.833Z,2.20
2023-05-10T22:41:27.537Z,2.03
2023-05-10T22:44:30.285Z,2.40
2023-05-10T22:47:33.796Z,2.40
2023-05-10T22:50:37.254Z,2.80
2023-05-10T22:53:39.966Z,2.00
2023-05-10T22:56:42.782Z,2.28
2023-05-10T22:59:45.559Z,2.35
2023-05-10T23:02:48.338Z,2.60
2023-05-10T23:05:51.211Z,2.20
2023-05-10T23:08:54.825Z,2.37
2023-05-10T23:11:57.561Z,2.00
2023-05-10T23:15:00.210Z,2.10
2023-05-10T23:18:02.977Z,3.20
2023-05-10T23:21:06.105Z,2.70
2023-05-10T23:24:08.913Z,2.30
2023-05-10T23:27:11.687Z,2.30
2023-05-10T23:30:14.683Z,2.38
2023-05-10T23:33:17.398Z,2.00
2023-05-10T23:36:20.073Z,2.10
2023-05-10T23:39:22.786Z,2.53
2023-05-10T23:42:25.691Z,2.33
2023-05-10T23:45:28.485Z,2.60
2023-05-10T23:48:31.410Z,2.22
2023-05-10T23:51:34.187Z,2.15
2023-05-10T23:54:37.041Z,2.23
2023-05-10T23:57:40.015Z,2.33
